sensor_id;sensor_type;location;lat;lon;timestamp;temperature;humidity
9215;DHT22;4642;51.364;6.788;2022-12-07T00:01:33;5.40;99.90
9215;DHT22;4642;51.364;6.788;2022-12-07T00:04:00;5.40;99.90
9215;DHT22;4642;51.364;6.788;2022-12-07T00:06:34;5.40;99.90
9215;DHT22;4642;51.364;6.788;2022-12-07T00:08:59;5.40;99.90
9215;DHT22;4642;51.364;6.788;2022-12-07T00:11:25;5.40;99.90
9215;DHT22;4642;51.364;6.788;2022-12-07T00:13:53;5.40;99.90
9215;DHT22;4642;51.364;6.788;2022-12-07T00:16:20;5.40;99.90
9215;DHT22;4642;51.364;6.788;2022-12-07T00:18:46;5.40;99.90
9215;DHT22;4642;51.364;6.788;2022-12-07T00:21:14;5.40;99.90
9215;DHT22;4642;51.364;6.788;2022-12-07T00:23:40;5.40;99.90
9215;DHT22;4642;51.364;6.788;2022-12-07T00:26:09;5.50;99.90
9215;DHT22;4642;51.364;6.788;2022-12-07T00:28:35;5.50;99.90
9215;DHT22;4642;51.364;6.788;2022-12-07T00:31:05;5.50;99.90
9215;DHT22;4642;51.364;6.788;2022-12-07T00:33:33;5.50;99.90
9215;DHT22;4642;51.364;6.788;2022-12-07T00:35:59;5.50;99.90
9215;DHT22;4642;51.364;6.788;2022-12-07T00:38:28;5.60;99.90
9215;DHT22;4642;51.364;6.788;2022-12-07T00:40:59;5.50;99.90
9215;DHT22;4642;51.364;6.788;2022-12-07T00:43:25;5.50;99.90
9215;DHT22;4642;51.364;6.788;2022-12-07T00:45:51;5.50;99.90
9215;DHT22;4642;51.364;6.788;2022-12-07T00:48:17;5.50;99.90
9215;DHT22;4642;51.364;6.788;2022-12-07T00:50:42;5.50;99.90
9215;DHT22;4642;51.364;6.788;2022-12-07T00:53:08;5.50;99.90
9215;DHT22;4642;51.364;6.788;2022-12-07T00:55:34;5.50;99.90
9215;DHT22;4642;51.364;6.788;2022-12-07T00:58:00;5.50;99.90
9215;DHT22;4642;51.364;6.788;2022-12-07T01:00:25;5.50;99.90
9215;DHT22;4642;51.364;6.788;2022-12-07T01:02:52;5.50;99.90
9215;DHT22;4642;51.364;6.788;2022-12-07T01:05:17;5.50;99.90
9215;DHT22;4642;51.364;6.788;2022-12-07T01:07:43;5.50;99.90
9215;DHT22;4642;51.364;6.788;2022-12-07T01:10:09;5.50;99.90
9215;DHT22;4642;51.364;6.788;2022-12-07T01:12:34;5.60;99.90
9215;DHT22;4642;51.364;6.788;2022-12-07T01:15:00;5.60;99.90
9215;DHT22;4642;51.364;6.788;2022-12-07T01:17:25;5.60;99.90
9215;DHT22;4642;51.364;6.788;2022-12-07T01:19:51;5.60;99.90
9215;DHT22;4642;51.364;6.788;2022-12-07T01:22:16;5.60;99.90
9215;DHT22;4642;51.364;6.788;2022-12-07T01:24:42;5.60;99.90
9215;DHT22;4642;51.364;6.788;2022-12-07T01:27:07;5.60;99.90
9215;DHT22;4642;51.364;6.788;2022-12-07T01:29:33;5.60;99.90
9215;DHT22;4642;51.364;6.788;2022-12-07T01:31:58;5.50;99.90
9215;DHT22;4642;51.364;6.788;2022-12-07T01:34:24;5.50;99.90
9215;DHT22;4642;51.364;6.788;2022-12-07T01:36:49;5.50;99.90
9215;DHT22;4642;51.364;6.788;2022-12-07T01:39:15;5.50;99.90
9215;DHT22;4642;51.364;6.788;2022-12-07T01:41:41;5.50;99.90
9215;DHT22;4642;51.364;6.788;2022-12-07T01:46:44;5.40;99.90
9215;DHT22;4642;51.364;6.788;2022-12-07T01:49:19;5.40;99.90
9215;DHT22;4642;51.364;6.788;2022-12-07T01:51:47;5.40;99.90
9215;DHT22;4642;51.364;6.788;2022-12-07T01:54:14;5.40;99.90
9215;DHT22;4642;51.364;6.788;2022-12-07T01:56:45;5.40;99.90
9215;DHT22;4642;51.364;6.788;2022-12-07T01:59:13;5.30;99.90
9215;DHT22;4642;51.364;6.788;2022-12-07T02:01:40;5.40;99.90
9215;DHT22;4642;51.364;6.788;2022-12-07T02:04:06;5.30;99.90
9215;DHT22;4642;51.364;6.788;2022-12-07T02:06:31;5.30;99.90
9215;DHT22;4642;51.364;6.788;2022-12-07T02:08:57;5.30;99.90
9215;DHT22;4642;51.364;6.788;2022-12-07T02:11:22;5.30;99.90
9215;DHT22;4642;51.364;6.788;2022-12-07T02:13:48;5.30;99.90
9215;DHT22;4642;51.364;6.788;2022-12-07T02:30:00;5.10;99.90
9215;DHT22;4642;51.364;6.788;2022-12-07T02:35:24;5.10;99.90
9215;DHT22;4642;51.364;6.788;2022-12-07T02:40:53;5.10;99.90
9215;DHT22;4642;51.364;6.788;2022-12-07T02:43:28;5.10;99.90
9215;DHT22;4642;51.364;6.788;2022-12-07T02:46:00;5.10;99.90
9215;DHT22;4642;51.364;6.788;2022-12-07T02:48:27;5.10;99.90
9215;DHT22;4642;51.364;6.788;2022-12-07T02:50:54;5.10;99.90
9215;DHT22;4642;51.364;6.788;2022-12-07T02:53:40;5.10;99.90
9215;DHT22;4642;51.364;6.788;2022-12-07T03:04:27;5.00;99.90
9215;DHT22;4642;51.364;6.788;2022-12-07T03:06:57;5.10;99.90
9215;DHT22;4642;51.364;6.788;2022-12-07T03:09:44;5.00;99.90
9215;DHT22;4642;51.364;6.788;2022-12-07T03:12:18;5.00;99.90
9215;DHT22;4642;51.364;6.788;2022-12-07T03:17:45;5.00;99.90
9215;DHT22;4642;51.364;6.788;2022-12-07T03:20:14;4.90;99.90
9215;DHT22;4642;51.364;6.788;2022-12-07T03:22:44;5.00;99.90
9215;DHT22;4642;51.364;6.788;2022-12-07T03:25:12;4.90;99.90
9215;DHT22;4642;51.364;6.788;2022-12-07T03:28:01;4.90;99.90
9215;DHT22;4642;51.364;6.788;2022-12-07T03:30:49;4.90;99.90
9215;DHT22;4642;51.364;6.788;2022-12-07T03:33:22;4.90;99.90
9215;DHT22;4642;51.364;6.788;2022-12-07T03:36:06;4.80;99.90
9215;DHT22;4642;51.364;6.788;2022-12-07T03:38:40;4.80;99.90
9215;DHT22;4642;51.364;6.788;2022-12-07T03:41:16;4.80;99.90
9215;DHT22;4642;51.364;6.788;2022-12-07T03:43:44;4.70;99.90
9215;DHT22;4642;51.364;6.788;2022-12-07T03:49:37;4.70;99.90
9215;DHT22;4642;51.364;6.788;2022-12-07T03:52:16;4.60;99.90
9215;DHT22;4642;51.364;6.788;2022-12-07T03:57:41;4.60;99.90
9215;DHT22;4642;51.364;6.788;2022-12-07T04:00:08;4.50;99.90
9215;DHT22;4642;51.364;6.788;2022-12-07T04:02:35;4.50;99.90
9215;DHT22;4642;51.364;6.788;2022-12-07T04:05:02;4.50;99.90
9215;DHT22;4642;51.364;6.788;2022-12-07T04:07:27;4.50;99.90
9215;DHT22;4642;51.364;6.788;2022-12-07T04:09:53;4.50;99.90
9215;DHT22;4642;51.364;6.788;2022-12-07T04:12:20;4.50;99.90
9215;DHT22;4642;51.364;6.788;2022-12-07T04:14:46;4.50;99.90
9215;DHT22;4642;51.364;6.788;2022-12-07T04:17:12;4.50;99.90
9215;DHT22;4642;51.364;6.788;2022-12-07T04:19:37;4.50;99.90
9215;DHT22;4642;51.364;6.788;2022-12-07T04:22:04;4.50;99.90
9215;DHT22;4642;51.364;6.788;2022-12-07T04:24:30;4.50;99.90
9215;DHT22;4642;51.364;6.788;2022-12-07T04:26:56;4.50;99.90
9215;DHT22;4642;51.364;6.788;2022-12-07T04:29:22;4.60;99.90
9215;DHT22;4642;51.364;6.788;2022-12-07T04:31:47;4.50;99.90
9215;DHT22;4642;51.364;6.788;2022-12-07T04:34:14;4.60;99.90
9215;DHT22;4642;51.364;6.788;2022-12-07T04:36:40;4.60;99.90
9215;DHT22;4642;51.364;6.788;2022-12-07T04:39:07;4.60;99.90
9215;DHT22;4642;51.364;6.788;2022-12-07T04:41:33;4.60;99.90
9215;DHT22;4642;51.364;6.788;2022-12-07T04:44:02;4.60;99.90
9215;DHT22;4642;51.364;6.788;2022-12-07T04:46:30;4.50;99.90
9215;DHT22;4642;51.364;6.788;2022-12-07T04:48:56;4.50;99.90
9215;DHT22;4642;51.364;6.788;2022-12-07T04:51:25;4.50;99.90
9215;DHT22;4642;51.364;6.788;2022-12-07T04:53:51;4.50;99.90
9215;DHT22;4642;51.364;6.788;2022-12-07T04:56:17;4.50;99.90
9215;DHT22;4642;51.364;6.788;2022-12-07T04:58:44;4.50;99.90
9215;DHT22;4642;51.364;6.788;2022-12-07T05:01:11;4.50;99.90
9215;DHT22;4642;51.364;6.788;2022-12-07T05:03:36;4.50;99.90
9215;DHT22;4642;51.364;6.788;2022-12-07T05:06:02;4.50;99.90
9215;DHT22;4642;51.364;6.788;2022-12-07T05:08:28;4.40;99.90
9215;DHT22;4642;51.364;6.788;2022-12-07T05:10:53;4.40;99.90
9215;DHT22;4642;51.364;6.788;2022-12-07T05:13:19;4.40;99.90
9215;DHT22;4642;51.364;6.788;2022-12-07T05:15:46;4.40;99.90
9215;DHT22;4642;51.364;6.788;2022-12-07T05:18:11;4.40;99.90
9215;DHT22;4642;51.364;6.788;2022-12-07T05:20:40;4.40;99.90
9215;DHT22;4642;51.364;6.788;2022-12-07T05:23:05;4.40;99.90
9215;DHT22;4642;51.364;6.788;2022-12-07T05:25:31;4.40;99.90
9215;DHT22;4642;51.364;6.788;2022-12-07T05:27:57;4.40;99.90
9215;DHT22;4642;51.364;6.788;2022-12-07T05:30:23;4.40;99.90
9215;DHT22;4642;51.364;6.788;2022-12-07T05:32:49;4.30;99.90
9215;DHT22;4642;51.364;6.788;2022-12-07T05:35:15;4.30;99.90
9215;DHT22;4642;51.364;6.788;2022-12-07T05:37:41;4.30;99.90
9215;DHT22;4642;51.364;6.788;2022-12-07T05:40:07;4.30;99.90
9215;DHT22;4642;51.364;6.788;2022-12-07T05:42:33;4.30;99.90
9215;DHT22;4642;51.364;6.788;2022-12-07T05:44:58;4.30;99.90
9215;DHT22;4642;51.364;6.788;2022-12-07T05:47:24;4.30;99.90
9215;DHT22;4642;51.364;6.788;2022-12-07T05:49:49;4.30;99.90
9215;DHT22;4642;51.364;6.788;2022-12-07T05:52:15;4.30;99.90
9215;DHT22;4642;51.364;6.788;2022-12-07T05:54:40;4.30;99.90
9215;DHT22;4642;51.364;6.788;2022-12-07T05:57:06;4.30;99.90
9215;DHT22;4642;51.364;6.788;2022-12-07T05:59:32;4.30;99.90
9215;DHT22;4642;51.364;6.788;2022-12-07T06:02:03;4.30;99.90
9215;DHT22;4642;51.364;6.788;2022-12-07T06:04:32;4.40;99.90
9215;DHT22;4642;51.364;6.788;2022-12-07T06:06:58;4.30;99.90
9215;DHT22;4642;51.364;6.788;2022-12-07T06:09:24;4.40;99.90
9215;DHT22;4642;51.364;6.788;2022-12-07T06:11:50;4.40;99.90
9215;DHT22;4642;51.364;6.788;2022-12-07T06:14:36;4.40;99.90
9215;DHT22;4642;51.364;6.788;2022-12-07T06:17:02;4.40;99.90
9215;DHT22;4642;51.364;6.788;2022-12-07T06:19:27;4.30;99.90
9215;DHT22;4642;51.364;6.788;2022-12-07T06:21:53;4.40;99.90
9215;DHT22;4642;51.364;6.788;2022-12-07T06:24:19;4.30;99.90
9215;DHT22;4642;51.364;6.788;2022-12-07T06:26:45;4.30;99.90
9215;DHT22;4642;51.364;6.788;2022-12-07T06:29:11;4.30;99.90
9215;DHT22;4642;51.364;6.788;2022-12-07T06:31:37;4.30;99.90
9215;DHT22;4642;51.364;6.788;2022-12-07T06:34:06;4.30;99.90
9215;DHT22;4642;51.364;6.788;2022-12-07T06:36:32;4.40;99.90
9215;DHT22;4642;51.364;6.788;2022-12-07T06:38:58;4.40;99.90
9215;DHT22;4642;51.364;6.788;2022-12-07T06:41:24;4.30;99.90
9215;DHT22;4642;51.364;6.788;2022-12-07T06:43:50;4.30;99.90
9215;DHT22;4642;51.364;6.788;2022-12-07T06:46:16;4.40;99.90
9215;DHT22;4642;51.364;6.788;2022-12-07T06:48:42;4.30;99.90
9215;DHT22;4642;51.364;6.788;2022-12-07T06:51:08;4.30;99.90
9215;DHT22;4642;51.364;6.788;2022-12-07T06:53:34;4.30;99.90
9215;DHT22;4642;51.364;6.788;2022-12-07T06:56:00;4.30;99.90
9215;DHT22;4642;51.364;6.788;2022-12-07T06:58:25;4.20;99.90
9215;DHT22;4642;51.364;6.788;2022-12-07T07:00:51;4.20;99.90
9215;DHT22;4642;51.364;6.788;2022-12-07T07:03:17;4.20;99.90
9215;DHT22;4642;51.364;6.788;2022-12-07T07:05:43;4.10;99.90
9215;DHT22;4642;51.364;6.788;2022-12-07T07:08:10;4.10;99.90
9215;DHT22;4642;51.364;6.788;2022-12-07T07:10:36;4.10;99.90
9215;DHT22;4642;51.364;6.788;2022-12-07T07:13:02;4.10;99.90
9215;DHT22;4642;51.364;6.788;2022-12-07T07:15:28;4.10;99.90
9215;DHT22;4642;51.364;6.788;2022-12-07T07:17:54;4.10;99.90
9215;DHT22;4642;51.364;6.788;2022-12-07T07:20:19;4.10;99.90
9215;DHT22;4642;51.364;6.788;2022-12-07T07:22:45;4.00;99.90
9215;DHT22;4642;51.364;6.788;2022-12-07T07:25:10;4.10;99.90
9215;DHT22;4642;51.364;6.788;2022-12-07T07:27:36;4.00;99.90
9215;DHT22;4642;51.364;6.788;2022-12-07T07:30:02;4.00;99.90
9215;DHT22;4642;51.364;6.788;2022-12-07T07:32:27;3.90;99.90
9215;DHT22;4642;51.364;6.788;2022-12-07T07:34:53;3.90;99.90
9215;DHT22;4642;51.364;6.788;2022-12-07T07:37:19;3.80;99.90
9215;DHT22;4642;51.364;6.788;2022-12-07T07:39:44;3.80;99.90
9215;DHT22;4642;51.364;6.788;2022-12-07T07:42:09;3.80;99.90
9215;DHT22;4642;51.364;6.788;2022-12-07T07:44:35;3.80;99.90
9215;DHT22;4642;51.364;6.788;2022-12-07T07:47:01;3.80;99.90
9215;DHT22;4642;51.364;6.788;2022-12-07T07:49:27;3.70;99.90
9215;DHT22;4642;51.364;6.788;2022-12-07T07:51:52;3.70;99.90
9215;DHT22;4642;51.364;6.788;2022-12-07T07:54:18;3.70;99.90
9215;DHT22;4642;51.364;6.788;2022-12-07T07:56:43;3.60;99.90
9215;DHT22;4642;51.364;6.788;2022-12-07T07:59:09;3.60;99.90
9215;DHT22;4642;51.364;6.788;2022-12-07T08:01:34;3.60;99.90
9215;DHT22;4642;51.364;6.788;2022-12-07T08:04:00;3.60;99.90
9215;DHT22;4642;51.364;6.788;2022-12-07T08:06:25;3.60;99.90
9215;DHT22;4642;51.364;6.788;2022-12-07T08:08:52;3.60;99.90
9215;DHT22;4642;51.364;6.788;2022-12-07T08:11:18;3.50;99.90
9215;DHT22;4642;51.364;6.788;2022-12-07T08:13:46;3.50;99.90
9215;DHT22;4642;51.364;6.788;2022-12-07T08:16:12;3.50;99.90
9215;DHT22;4642;51.364;6.788;2022-12-07T08:18:39;3.50;99.90
9215;DHT22;4642;51.364;6.788;2022-12-07T08:21:07;3.60;99.90
9215;DHT22;4642;51.364;6.788;2022-12-07T08:23:33;3.50;99.90
9215;DHT22;4642;51.364;6.788;2022-12-07T08:26:08;3.50;99.90
9215;DHT22;4642;51.364;6.788;2022-12-07T08:28:34;3.50;99.90
9215;DHT22;4642;51.364;6.788;2022-12-07T08:31:04;3.50;99.90
9215;DHT22;4642;51.364;6.788;2022-12-07T08:33:29;3.50;99.90
9215;DHT22;4642;51.364;6.788;2022-12-07T08:36:03;3.50;99.90
9215;DHT22;4642;51.364;6.788;2022-12-07T08:38:29;3.50;99.90
9215;DHT22;4642;51.364;6.788;2022-12-07T08:40:55;3.50;99.90
9215;DHT22;4642;51.364;6.788;2022-12-07T08:43:21;3.50;99.90
9215;DHT22;4642;51.364;6.788;2022-12-07T08:46:06;3.50;99.90
9215;DHT22;4642;51.364;6.788;2022-12-07T08:48:35;3.60;99.90
9215;DHT22;4642;51.364;6.788;2022-12-07T08:51:01;3.60;99.90
9215;DHT22;4642;51.364;6.788;2022-12-07T08:53:28;3.60;99.90
9215;DHT22;4642;51.364;6.788;2022-12-07T08:55:53;3.70;99.90
9215;DHT22;4642;51.364;6.788;2022-12-07T08:58:20;3.70;99.90
9215;DHT22;4642;51.364;6.788;2022-12-07T09:00:45;3.80;99.90
9215;DHT22;4642;51.364;6.788;2022-12-07T09:03:11;3.80;99.90
9215;DHT22;4642;51.364;6.788;2022-12-07T09:05:36;3.90;99.90
9215;DHT22;4642;51.364;6.788;2022-12-07T09:08:02;4.00;99.90
9215;DHT22;4642;51.364;6.788;2022-12-07T09:10:29;4.10;99.90
9215;DHT22;4642;51.364;6.788;2022-12-07T09:12:54;4.10;99.90
9215;DHT22;4642;51.364;6.788;2022-12-07T09:15:20;4.20;99.90
9215;DHT22;4642;51.364;6.788;2022-12-07T09:17:46;4.20;99.90
9215;DHT22;4642;51.364;6.788;2022-12-07T09:20:12;4.20;99.90
9215;DHT22;4642;51.364;6.788;2022-12-07T09:22:37;4.20;99.90
9215;DHT22;4642;51.364;6.788;2022-12-07T09:25:04;4.30;99.90
9215;DHT22;4642;51.364;6.788;2022-12-07T09:27:30;4.40;99.90
9215;DHT22;4642;51.364;6.788;2022-12-07T09:29:55;4.50;99.90
9215;DHT22;4642;51.364;6.788;2022-12-07T09:32:21;4.60;99.90
9215;DHT22;4642;51.364;6.788;2022-12-07T09:34:47;4.70;99.90
9215;DHT22;4642;51.364;6.788;2022-12-07T09:37:12;4.70;99.90
9215;DHT22;4642;51.364;6.788;2022-12-07T09:39:38;4.80;99.90
9215;DHT22;4642;51.364;6.788;2022-12-07T09:42:05;4.80;99.90
9215;DHT22;4642;51.364;6.788;2022-12-07T09:44:31;4.80;99.90
9215;DHT22;4642;51.364;6.788;2022-12-07T09:46:57;4.90;99.90
9215;DHT22;4642;51.364;6.788;2022-12-07T09:49:25;4.90;99.90
9215;DHT22;4642;51.364;6.788;2022-12-07T09:52:02;4.90;99.90
9215;DHT22;4642;51.364;6.788;2022-12-07T09:54:29;5.00;99.90
9215;DHT22;4642;51.364;6.788;2022-12-07T09:56:56;4.90;99.90
9215;DHT22;4642;51.364;6.788;2022-12-07T09:59:21;4.90;99.90
9215;DHT22;4642;51.364;6.788;2022-12-07T10:01:49;4.90;99.90
9215;DHT22;4642;51.364;6.788;2022-12-07T10:04:18;4.90;99.90
9215;DHT22;4642;51.364;6.788;2022-12-07T10:06:44;4.90;99.90
9215;DHT22;4642;51.364;6.788;2022-12-07T10:09:21;4.90;99.90
9215;DHT22;4642;51.364;6.788;2022-12-07T10:14:29;5.00;99.90
9215;DHT22;4642;51.364;6.788;2022-12-07T10:16:55;5.00;99.90
9215;DHT22;4642;51.364;6.788;2022-12-07T10:19:30;5.00;99.90
9215;DHT22;4642;51.364;6.788;2022-12-07T10:22:07;5.00;99.90
9215;DHT22;4642;51.364;6.788;2022-12-07T10:24:34;5.00;99.90
9215;DHT22;4642;51.364;6.788;2022-12-07T10:27:00;5.00;99.90
9215;DHT22;4642;51.364;6.788;2022-12-07T10:29:31;5.00;99.90
9215;DHT22;4642;51.364;6.788;2022-12-07T10:32:30;5.00;99.90
9215;DHT22;4642;51.364;6.788;2022-12-07T10:35:21;5.00;99.90
9215;DHT22;4642;51.364;6.788;2022-12-07T10:37:47;5.10;99.90
9215;DHT22;4642;51.364;6.788;2022-12-07T10:40:26;5.10;99.90
9215;DHT22;4642;51.364;6.788;2022-12-07T10:51:15;5.50;99.90
9215;DHT22;4642;51.364;6.788;2022-12-07T10:54:16;5.50;99.90
9215;DHT22;4642;51.364;6.788;2022-12-07T10:57:06;5.60;99.90
9215;DHT22;4642;51.364;6.788;2022-12-07T11:00:06;5.70;99.90
9215;DHT22;4642;51.364;6.788;2022-12-07T11:05:30;5.80;99.90
9215;DHT22;4642;51.364;6.788;2022-12-07T11:10:41;6.00;99.90
9215;DHT22;4642;51.364;6.788;2022-12-07T11:16:15;6.10;99.90
9215;DHT22;4642;51.364;6.788;2022-12-07T11:18:51;6.20;99.90
9215;DHT22;4642;51.364;6.788;2022-12-07T11:21:30;6.20;99.90
9215;DHT22;4642;51.364;6.788;2022-12-07T11:24:06;6.20;99.90
9215;DHT22;4642;51.364;6.788;2022-12-07T11:32:33;6.20;99.90
9215;DHT22;4642;51.364;6.788;2022-12-07T11:37:51;6.30;99.90
9215;DHT22;4642;51.364;6.788;2022-12-07T11:43:02;6.30;99.90
9215;DHT22;4642;51.364;6.788;2022-12-07T11:45:32;6.30;99.90
9215;DHT22;4642;51.364;6.788;2022-12-07T11:50:41;6.40;99.90
9215;DHT22;4642;51.364;6.788;2022-12-07T12:04:10;6.50;99.90
9215;DHT22;4642;51.364;6.788;2022-12-07T12:06:43;6.50;99.90
9215;DHT22;4642;51.364;6.788;2022-12-07T12:09:16;6.40;99.90
9215;DHT22;4642;51.364;6.788;2022-12-07T12:20:32;6.50;99.90
9215;DHT22;4642;51.364;6.788;2022-12-07T12:24:02;6.50;99.90
9215;DHT22;4642;51.364;6.788;2022-12-07T12:26:16;6.50;99.90
9215;DHT22;4642;51.364;6.788;2022-12-07T12:28:54;6.50;99.90
9215;DHT22;4642;51.364;6.788;2022-12-07T12:38:50;6.60;99.90
9215;DHT22;4642;51.364;6.788;2022-12-07T12:54:37;6.20;99.90
9215;DHT22;4642;51.364;6.788;2022-12-07T12:57:16;5.90;99.90
9215;DHT22;4642;51.364;6.788;2022-12-07T13:04:55;5.80;99.90
9215;DHT22;4642;51.364;6.788;2022-12-07T13:15:44;5.80;99.90
9215;DHT22;4642;51.364;6.788;2022-12-07T13:20:55;5.90;99.90
9215;DHT22;4642;51.364;6.788;2022-12-07T13:29:11;6.00;99.90
9215;DHT22;4642;51.364;6.788;2022-12-07T13:31:38;6.00;99.90
9215;DHT22;4642;51.364;6.788;2022-12-07T13:34:27;6.00;99.90
9215;DHT22;4642;51.364;6.788;2022-12-07T13:36:51;6.00;99.90
9215;DHT22;4642;51.364;6.788;2022-12-07T13:39:20;6.10;99.90
9215;DHT22;4642;51.364;6.788;2022-12-07T13:41:56;6.10;99.90
9215;DHT22;4642;51.364;6.788;2022-12-07T13:44:24;6.20;99.90
9215;DHT22;4642;51.364;6.788;2022-12-07T13:47:30;6.10;99.90
9215;DHT22;4642;51.364;6.788;2022-12-07T13:49:57;6.10;99.90
9215;DHT22;4642;51.364;6.788;2022-12-07T13:52:24;6.20;99.90
9215;DHT22;4642;51.364;6.788;2022-12-07T13:54:56;6.10;99.90
9215;DHT22;4642;51.364;6.788;2022-12-07T13:57:22;6.20;99.90
9215;DHT22;4642;51.364;6.788;2022-12-07T13:59:49;6.20;99.90
9215;DHT22;4642;51.364;6.788;2022-12-07T14:02:30;6.20;99.90
9215;DHT22;4642;51.364;6.788;2022-12-07T14:10:41;6.20;99.90
9215;DHT22;4642;51.364;6.788;2022-12-07T14:13:33;6.20;99.90
9215;DHT22;4642;51.364;6.788;2022-12-07T14:18:51;6.10;99.90
9215;DHT22;4642;51.364;6.788;2022-12-07T14:21:19;6.10;99.90
9215;DHT22;4642;51.364;6.788;2022-12-07T14:24:10;6.10;99.90
9215;DHT22;4642;51.364;6.788;2022-12-07T14:26:38;6.10;99.90
9215;DHT22;4642;51.364;6.788;2022-12-07T14:31:51;6.10;99.90
9215;DHT22;4642;51.364;6.788;2022-12-07T14:34:19;6.10;99.90
9215;DHT22;4642;51.364;6.788;2022-12-07T14:36:45;6.10;99.90
9215;DHT22;4642;51.364;6.788;2022-12-07T14:39:10;6.10;99.90
9215;DHT22;4642;51.364;6.788;2022-12-07T14:41:36;6.00;99.90
9215;DHT22;4642;51.364;6.788;2022-12-07T14:44:17;6.00;99.90
9215;DHT22;4642;51.364;6.788;2022-12-07T14:46:43;6.00;99.90
9215;DHT22;4642;51.364;6.788;2022-12-07T14:49:08;5.90;99.90
9215;DHT22;4642;51.364;6.788;2022-12-07T14:51:36;5.90;99.90
9215;DHT22;4642;51.364;6.788;2022-12-07T14:54:04;5.90;99.90
9215;DHT22;4642;51.364;6.788;2022-12-07T14:56:30;5.80;99.90
9215;DHT22;4642;51.364;6.788;2022-12-07T14:58:56;5.80;99.90
9215;DHT22;4642;51.364;6.788;2022-12-07T15:01:21;5.80;99.90
9215;DHT22;4642;51.364;6.788;2022-12-07T15:03:47;5.80;99.90
9215;DHT22;4642;51.364;6.788;2022-12-07T15:06:17;5.70;99.90
9215;DHT22;4642;51.364;6.788;2022-12-07T15:08:43;5.70;99.90
9215;DHT22;4642;51.364;6.788;2022-12-07T15:11:17;5.70;99.90
9215;DHT22;4642;51.364;6.788;2022-12-07T15:13:42;5.70;99.90
9215;DHT22;4642;51.364;6.788;2022-12-07T15:16:27;5.60;99.90
9215;DHT22;4642;51.364;6.788;2022-12-07T15:18:53;5.60;99.90
9215;DHT22;4642;51.364;6.788;2022-12-07T15:21:18;5.60;99.90
9215;DHT22;4642;51.364;6.788;2022-12-07T15:23:46;5.50;99.90
9215;DHT22;4642;51.364;6.788;2022-12-07T15:26:12;5.50;99.90
9215;DHT22;4642;51.364;6.788;2022-12-07T15:28:39;5.40;99.90
9215;DHT22;4642;51.364;6.788;2022-12-07T15:31:11;5.40;99.90
9215;DHT22;4642;51.364;6.788;2022-12-07T15:33:37;5.30;99.90
9215;DHT22;4642;51.364;6.788;2022-12-07T15:36:02;5.30;99.90
9215;DHT22;4642;51.364;6.788;2022-12-07T15:38:28;5.20;99.90
9215;DHT22;4642;51.364;6.788;2022-12-07T15:40:55;5.20;99.90
9215;DHT22;4642;51.364;6.788;2022-12-07T15:43:21;5.20;99.90
9215;DHT22;4642;51.364;6.788;2022-12-07T15:46:05;5.20;99.90
9215;DHT22;4642;51.364;6.788;2022-12-07T15:48:30;5.10;99.90
9215;DHT22;4642;51.364;6.788;2022-12-07T15:51:08;5.20;99.90
9215;DHT22;4642;51.364;6.788;2022-12-07T15:53:34;5.20;99.90
9215;DHT22;4642;51.364;6.788;2022-12-07T15:56:00;5.30;99.90
9215;DHT22;4642;51.364;6.788;2022-12-07T15:58:27;5.20;99.90
9215;DHT22;4642;51.364;6.788;2022-12-07T16:00:52;5.20;99.90
9215;DHT22;4642;51.364;6.788;2022-12-07T16:03:18;5.20;99.90
9215;DHT22;4642;51.364;6.788;2022-12-07T16:05:53;5.20;99.90
9215;DHT22;4642;51.364;6.788;2022-12-07T16:08:19;5.20;99.90
9215;DHT22;4642;51.364;6.788;2022-12-07T16:10:44;5.10;99.90
9215;DHT22;4642;51.364;6.788;2022-12-07T16:13:11;5.10;99.90
9215;DHT22;4642;51.364;6.788;2022-12-07T16:15:40;5.10;99.90
9215;DHT22;4642;51.364;6.788;2022-12-07T16:18:06;5.10;99.90
9215;DHT22;4642;51.364;6.788;2022-12-07T16:20:32;5.10;99.90
9215;DHT22;4642;51.364;6.788;2022-12-07T16:22:58;5.10;99.90
9215;DHT22;4642;51.364;6.788;2022-12-07T16:25:23;5.10;99.90
9215;DHT22;4642;51.364;6.788;2022-12-07T16:27:50;5.20;99.90
9215;DHT22;4642;51.364;6.788;2022-12-07T16:30:16;5.20;99.90
9215;DHT22;4642;51.364;6.788;2022-12-07T16:32:42;5.20;99.90
9215;DHT22;4642;51.364;6.788;2022-12-07T16:35:08;5.20;99.90
9215;DHT22;4642;51.364;6.788;2022-12-07T16:37:34;5.40;99.90
9215;DHT22;4642;51.364;6.788;2022-12-07T16:39:59;5.50;99.90
9215;DHT22;4642;51.364;6.788;2022-12-07T16:42:25;5.50;99.90
9215;DHT22;4642;51.364;6.788;2022-12-07T16:44:51;5.50;99.90
9215;DHT22;4642;51.364;6.788;2022-12-07T16:47:17;5.50;99.90
9215;DHT22;4642;51.364;6.788;2022-12-07T16:49:43;5.50;99.90
9215;DHT22;4642;51.364;6.788;2022-12-07T16:52:09;5.50;99.90
9215;DHT22;4642;51.364;6.788;2022-12-07T16:54:35;5.60;99.90
9215;DHT22;4642;51.364;6.788;2022-12-07T16:57:01;5.60;99.90
9215;DHT22;4642;51.364;6.788;2022-12-07T16:59:26;5.60;99.90
9215;DHT22;4642;51.364;6.788;2022-12-07T17:01:52;5.60;99.90
9215;DHT22;4642;51.364;6.788;2022-12-07T17:04:17;5.60;99.90
9215;DHT22;4642;51.364;6.788;2022-12-07T17:06:43;5.60;99.90
9215;DHT22;4642;51.364;6.788;2022-12-07T17:09:08;5.60;99.90
9215;DHT22;4642;51.364;6.788;2022-12-07T17:11:35;5.60;99.90
9215;DHT22;4642;51.364;6.788;2022-12-07T17:14:01;5.60;99.90
9215;DHT22;4642;51.364;6.788;2022-12-07T17:16:45;5.60;99.90
9215;DHT22;4642;51.364;6.788;2022-12-07T17:19:13;5.60;99.90
9215;DHT22;4642;51.364;6.788;2022-12-07T17:21:39;5.50;99.90
9215;DHT22;4642;51.364;6.788;2022-12-07T17:24:08;5.50;99.90
9215;DHT22;4642;51.364;6.788;2022-12-07T17:26:34;5.50;99.90
9215;DHT22;4642;51.364;6.788;2022-12-07T17:29:00;5.50;99.90
9215;DHT22;4642;51.364;6.788;2022-12-07T17:31:26;5.40;99.90
9215;DHT22;4642;51.364;6.788;2022-12-07T17:33:52;5.50;99.90
9215;DHT22;4642;51.364;6.788;2022-12-07T17:36:20;5.40;99.90
9215;DHT22;4642;51.364;6.788;2022-12-07T17:38:46;5.40;99.90
9215;DHT22;4642;51.364;6.788;2022-12-07T17:41:18;5.40;99.90
9215;DHT22;4642;51.364;6.788;2022-12-07T17:44:04;5.40;99.90
9215;DHT22;4642;51.364;6.788;2022-12-07T17:46:30;5.40;99.90
9215;DHT22;4642;51.364;6.788;2022-12-07T17:48:56;5.40;99.90
9215;DHT22;4642;51.364;6.788;2022-12-07T17:51:22;5.40;99.90
9215;DHT22;4642;51.364;6.788;2022-12-07T17:54:07;5.40;99.90
9215;DHT22;4642;51.364;6.788;2022-12-07T17:56:32;5.40;99.90
9215;DHT22;4642;51.364;6.788;2022-12-07T17:58:58;5.30;99.90
9215;DHT22;4642;51.364;6.788;2022-12-07T18:01:23;5.30;99.90
9215;DHT22;4642;51.364;6.788;2022-12-07T18:03:49;5.30;99.90
9215;DHT22;4642;51.364;6.788;2022-12-07T18:06:15;5.30;99.90
9215;DHT22;4642;51.364;6.788;2022-12-07T18:08:40;5.20;99.90
9215;DHT22;4642;51.364;6.788;2022-12-07T18:11:06;5.20;99.90
9215;DHT22;4642;51.364;6.788;2022-12-07T18:13:33;5.20;99.90
9215;DHT22;4642;51.364;6.788;2022-12-07T18:18:28;5.20;99.90
9215;DHT22;4642;51.364;6.788;2022-12-07T18:20:54;5.10;99.90
9215;DHT22;4642;51.364;6.788;2022-12-07T18:23:20;5.10;99.90
9215;DHT22;4642;51.364;6.788;2022-12-07T18:25:49;5.10;99.90
9215;DHT22;4642;51.364;6.788;2022-12-07T18:28:16;5.10;99.90
9215;DHT22;4642;51.364;6.788;2022-12-07T18:30:42;5.10;99.90
9215;DHT22;4642;51.364;6.788;2022-12-07T18:33:18;5.10;99.90
9215;DHT22;4642;51.364;6.788;2022-12-07T18:35:45;5.10;99.90
9215;DHT22;4642;51.364;6.788;2022-12-07T18:38:11;5.10;99.90
9215;DHT22;4642;51.364;6.788;2022-12-07T18:40:41;5.10;99.90
9215;DHT22;4642;51.364;6.788;2022-12-07T18:43:08;5.00;99.90
9215;DHT22;4642;51.364;6.788;2022-12-07T18:45:38;5.00;99.90
9215;DHT22;4642;51.364;6.788;2022-12-07T18:48:04;5.00;99.90
9215;DHT22;4642;51.364;6.788;2022-12-07T18:50:30;5.00;99.90
9215;DHT22;4642;51.364;6.788;2022-12-07T18:52:57;5.00;99.90
9215;DHT22;4642;51.364;6.788;2022-12-07T18:55:24;5.00;99.90